Time;durP1;ratioP1;P1;durP2;ratioP2;P2;SDS_P1;SDS_P2;PMS_P1;PMS_P2;Temp;Humidity;BMP_temperature;BMP_pressure;BME280_temperature;BME280_humidity;BME280_pressure;Samples;Min_cycle;Max_cycle;Signal;HPM_P1;HPM_P2
2023/03/03 00:00:05;;;;;;;33.53;19.50;;;;;;;1.55;100.00;101092.69;5103005;28;20527;-62
2023/03/03 00:02:31;;;;;;;37.67;20.63;;;;;;;2.05;100.00;101084.44;5103498;28;20473;-62
2023/03/03 00:04:58;;;;;;;36.63;20.90;;;;;;;1.77;100.00;101079.47;5103965;28;20458;-62
2023/03/03 00:07:25;;;;;;;45.40;21.80;;;;;;;1.71;100.00;101080.56;5103087;28;20482;-62
2023/03/03 00:09:51;;;;;;;41.23;23.03;;;;;;;1.77;100.00;101071.56;5103995;28;20526;-62
2023/03/03 00:12:23;;;;;;;39.23;22.37;;;;;;;1.82;100.00;101075.72;5112110;28;20542;-62
2023/03/03 00:14:49;;;;;;;41.27;22.33;;;;;;;2.04;100.00;101073.03;5124531;28;20982;-62
2023/03/03 00:17:22;;;;;;;38.07;20.60;;;;;;;1.69;100.00;101079.78;5105159;28;20538;-62
2023/03/03 00:19:48;;;;;;;38.77;20.83;;;;;;;1.99;100.00;101084.69;5107748;28;20456;-62
2023/03/03 00:22:22;;;;;;;42.33;23.00;;;;;;;2.00;100.00;101086.44;5099214;28;20478;-62
2023/03/03 00:24:49;;;;;;;43.10;20.73;;;;;;;1.91;100.00;101078.88;5111579;28;20443;-62
2023/03/03 00:27:22;;;;;;;37.97;22.10;;;;;;;1.94;100.00;101084.03;5109969;28;20497;-62
2023/03/03 00:29:49;;;;;;;39.70;22.60;;;;;;;2.08;100.00;101084.28;5123567;28;20469;-62
2023/03/03 00:32:25;;;;;;;40.40;22.13;;;;;;;2.13;100.00;101079.69;5102733;28;20548;-62
2023/03/03 00:34:52;;;;;;;35.83;21.13;;;;;;;1.92;100.00;101089.38;5103519;28;20450;-62
2023/03/03 00:37:27;;;;;;;33.80;19.73;;;;;;;1.69;100.00;101075.38;5102238;28;20495;-62
2023/03/03 00:39:59;;;;;;;37.73;20.00;;;;;;;2.12;100.00;101085.03;5104751;28;20462;-61
2023/03/03 00:42:27;;;;;;;33.40;19.90;;;;;;;2.11;100.00;101085.97;5105259;28;20558;-62
2023/03/03 00:44:56;;;;;;;35.20;20.30;;;;;;;2.37;100.00;101069.84;5122786;28;20437;-62
2023/03/03 00:47:29;;;;;;;33.70;20.50;;;;;;;1.84;100.00;101071.25;5110391;28;20502;-62
2023/03/03 00:50:15;;;;;;;36.27;19.93;;;;;;;1.86;100.00;101082.56;5108138;28;20454;-62
2023/03/03 00:52:53;;;;;;;31.80;18.80;;;;;;;2.05;100.00;101076.53;5104626;28;20481;-62
2023/03/03 00:55:20;;;;;;;31.77;18.37;;;;;;;1.92;100.00;101080.59;5117081;28;20442;-62
2023/03/03 00:57:48;;;;;;;33.47;18.70;;;;;;;2.05;100.00;101077.38;5103209;28;20958;-62
2023/03/03 01:00:15;;;;;;;35.23;18.90;;;;;;;1.99;100.00;101087.34;5114864;28;20489;-62
2023/03/03 01:02:45;;;;;;;36.10;19.17;;;;;;;1.82;100.00;101075.72;5117396;28;20434;-62
2023/03/03 01:05:13;;;;;;;32.73;18.13;;;;;;;2.04;100.00;101075.66;5102114;28;20514;-62
2023/03/03 01:07:40;;;;;;;36.77;19.40;;;;;;;2.10;100.00;101071.03;5102120;28;20490;-62
2023/03/03 01:10:08;;;;;;;37.23;21.40;;;;;;;2.21;100.00;101074.94;5101142;28;20486;-62
2023/03/03 01:12:35;;;;;;;38.83;21.80;;;;;;;2.00;100.00;101076.72;5102565;28;20507;-62
2023/03/03 01:15:03;;;;;;;38.10;21.33;;;;;;;2.26;100.00;101082.66;5111500;28;20478;-62
2023/03/03 01:17:30;;;;;;;33.77;19.17;;;;;;;1.96;100.00;101085.69;5098547;28;20482;-62
2023/03/03 01:19:56;;;;;;;37.60;19.90;;;;;;;2.00;100.00;101084.63;5101456;28;20487;-63
2023/03/03 01:22:23;;;;;;;33.20;19.43;;;;;;;2.06;100.00;101089.63;5100894;28;20528;-63
2023/03/03 01:24:49;;;;;;;37.50;20.50;;;;;;;2.31;100.00;101088.59;5104530;28;20466;-63
2023/03/03 01:27:16;;;;;;;38.93;20.97;;;;;;;2.21;100.00;101088.13;5101297;28;20502;-61
2023/03/03 01:29:43;;;;;;;34.40;20.70;;;;;;;2.25;100.00;101081.78;5101342;28;20450;-61
2023/03/03 01:32:11;;;;;;;41.30;21.67;;;;;;;1.87;100.00;101075.53;5101388;28;20481;-62
2023/03/03 01:34:38;;;;;;;35.73;19.23;;;;;;;2.18;100.00;101074.22;5082609;28;20515;-61
2023/03/03 01:37:04;;;;;;;38.30;21.33;;;;;;;1.97;100.00;101076.00;5100568;28;20501;-61
2023/03/03 01:39:31;;;;;;;34.80;17.80;;;;;;;1.80;100.00;101068.78;5101790;28;20486;-61
2023/03/03 01:41:57;;;;;;;37.27;20.33;;;;;;;1.76;100.00;101065.44;5099987;28;20502;-62
2023/03/03 01:44:24;;;;;;;33.90;18.43;;;;;;;1.93;100.00;101077.91;5102700;28;20443;-62
2023/03/03 01:46:55;;;;;;;36.50;19.80;;;;;;;1.85;100.00;101082.63;5103510;28;20928;-61
2023/03/03 01:49:26;;;;;;;39.67;19.60;;;;;;;1.80;100.00;101089.88;5101115;28;20483;-62
2023/03/03 01:51:54;;;;;;;34.70;20.17;;;;;;;1.63;100.00;101080.03;5112263;28;20658;-62
2023/03/03 01:54:25;;;;;;;36.70;19.03;;;;;;;1.74;100.00;101074.34;5102657;28;20441;-61
2023/03/03 01:56:53;;;;;;;40.50;19.13;;;;;;;1.97;100.00;101078.63;5101192;28;20485;-62
2023/03/03 01:59:21;;;;;;;41.57;20.33;;;;;;;2.32;100.00;101073.63;5100413;28;20503;-62
2023/03/03 02:01:48;;;;;;;39.53;20.00;;;;;;;2.19;100.00;101071.50;5115816;28;21046;-62
2023/03/03 02:04:16;;;;;;;40.90;20.77;;;;;;;1.47;100.00;101075.38;5119762;28;20472;-61
2023/03/03 02:06:48;;;;;;;36.47;18.60;;;;;;;1.71;100.00;101077.09;5122048;28;20478;-62
2023/03/03 02:09:19;;;;;;;38.20;18.40;;;;;;;1.45;100.00;101086.91;5104494;28;20512;-62
2023/03/03 02:11:47;;;;;;;38.63;20.80;;;;;;;1.63;100.00;101078.28;5114092;28;20501;-61
2023/03/03 02:14:13;;;;;;;36.37;18.13;;;;;;;1.32;100.00;101078.66;5114600;28;20986;-62
2023/03/03 02:16:40;;;;;;;41.70;19.50;;;;;;;1.59;100.00;101076.66;5102506;28;20474;-62
2023/03/03 02:19:15;;;;;;;37.53;19.07;;;;;;;1.74;100.00;101079.63;5121850;28;20510;-62
2023/03/03 02:21:41;;;;;;;38.80;20.10;;;;;;;1.61;100.00;101071.34;5106775;28;20466;-63
2023/03/03 02:24:16;;;;;;;37.77;19.30;;;;;;;1.30;100.00;101070.81;5106880;28;20469;-62
2023/03/03 02:26:45;;;;;;;40.83;20.30;;;;;;;1.58;100.00;101076.72;5121553;28;20489;-63
2023/03/03 02:29:11;;;;;;;42.33;19.63;;;;;;;1.50;100.00;101072.63;5080669;28;20460;-62
2023/03/03 02:31:38;;;;;;;39.07;20.27;;;;;;;1.46;100.00;101076.31;5108898;28;20472;-62
2023/03/03 02:34:05;;;;;;;40.97;22.30;;;;;;;1.29;100.00;101073.50;5115556;28;20453;-63
2023/03/03 02:36:34;;;;;;;39.30;21.90;;;;;;;1.38;100.00;101078.41;5101185;28;20442;-62
2023/03/03 02:39:05;;;;;;;44.17;23.13;;;;;;;1.41;100.00;101073.00;5102488;28;20512;-62
2023/03/03 02:41:34;;;;;;;47.83;22.03;;;;;;;1.68;100.00;101076.31;5101419;28;20571;-62
2023/03/03 02:44:05;;;;;;;42.23;21.07;;;;;;;1.73;100.00;101080.53;5104837;28;20481;-63
2023/03/03 02:46:33;;;;;;;41.07;20.63;;;;;;;1.44;100.00;101080.78;5121921;28;20473;-61
2023/03/03 02:49:00;;;;;;;39.50;19.80;;;;;;;1.65;100.00;101084.34;5106991;28;20545;-62
2023/03/03 02:51:27;;;;;;;37.43;18.43;;;;;;;1.56;100.00;101081.19;5106924;28;20489;-62
2023/03/03 02:53:53;;;;;;;39.87;19.03;;;;;;;1.54;100.00;101097.06;5121584;28;20547;-62
2023/03/03 02:56:20;;;;;;;35.20;18.33;;;;;;;1.43;100.00;101092.25;5100285;28;20507;-61
2023/03/03 02:58:46;;;;;;;43.53;19.90;;;;;;;1.10;100.00;101081.25;5099788;28;20530;-63
2023/03/03 03:01:14;;;;;;;42.33;19.03;;;;;;;1.36;100.00;101079.38;5100870;28;20514;-63
2023/03/03 03:03:41;;;;;;;45.50;19.83;;;;;;;1.59;100.00;101074.03;5100659;28;20477;-63
2023/03/03 03:06:08;;;;;;;48.97;21.03;;;;;;;1.22;100.00;101075.50;5100459;28;20994;-62
2023/03/03 03:08:34;;;;;;;51.80;21.60;;;;;;;1.30;100.00;101081.34;5100558;28;20484;-62
2023/03/03 03:11:01;;;;;;;50.23;21.13;;;;;;;1.14;100.00;101082.84;5100996;28;20486;-62
2023/03/03 03:13:29;;;;;;;48.30;20.57;;;;;;;1.20;100.00;101080.00;5100471;28;20474;-62
2023/03/03 03:15:55;;;;;;;48.10;20.73;;;;;;;1.41;100.00;101080.06;5106324;28;20533;-62
2023/03/03 03:18:23;;;;;;;40.83;19.53;;;;;;;1.56;100.00;101070.66;5125572;28;20488;-62
2023/03/03 03:20:50;;;;;;;48.43;19.70;;;;;;;1.77;100.00;101066.28;5112629;28;20449;-62
2023/03/03 03:23:17;;;;;;;49.93;21.10;;;;;;;1.50;100.00;101069.16;5112131;28;20489;-61
2023/03/03 03:25:45;;;;;;;47.13;21.10;;;;;;;1.20;100.00;101076.47;5118999;28;20435;-63
2023/03/03 03:28:12;;;;;;;44.73;20.90;;;;;;;1.14;100.00;101069.69;5104438;28;21131;-62
2023/03/03 03:30:39;;;;;;;51.23;20.03;;;;;;;1.33;100.00;101077.72;5113162;28;20457;-63
2023/03/03 03:33:06;;;;;;;41.20;20.00;;;;;;;1.13;100.00;101068.84;5121223;28;20516;-61
2023/03/03 03:35:35;;;;;;;46.30;19.20;;;;;;;1.26;100.00;101073.63;5104678;28;20454;-61
2023/03/03 03:38:02;;;;;;;49.07;20.27;;;;;;;1.07;100.00;101082.22;5104035;28;20900;-62
2023/03/03 03:40:28;;;;;;;54.93;19.90;;;;;;;0.83;100.00;101091.06;5104313;28;20811;-60
2023/03/03 03:42:55;;;;;;;44.43;20.70;;;;;;;0.65;100.00;101093.47;5087058;28;20482;-62
2023/03/03 03:45:22;;;;;;;58.83;23.00;;;;;;;0.69;100.00;101081.91;5087882;28;20506;-60
2023/03/03 03:47:49;;;;;;;47.73;19.33;;;;;;;0.63;100.00;101092.66;5090497;28;20562;-60
2023/03/03 03:50:15;;;;;;;44.00;18.23;;;;;;;0.63;100.00;101091.81;5080107;28;20463;-60
2023/03/03 03:52:44;;;;;;;43.80;21.53;;;;;;;0.36;100.00;101097.16;5063388;28;20526;-61
2023/03/03 03:55:11;;;;;;;44.90;21.77;;;;;;;0.39;100.00;101106.72;5080423;28;20473;-61
2023/03/03 03:57:37;;;;;;;53.10;20.43;;;;;;;0.52;100.00;101095.69;5094296;28;20501;-62
2023/03/03 04:00:05;;;;;;;42.80;18.70;;;;;;;0.34;100.00;101091.94;5095036;28;20477;-62
2023/03/03 04:02:32;;;;;;;40.50;18.47;;;;;;;0.39;100.00;101090.94;5096625;28;20431;-61
2023/03/03 04:04:59;;;;;;;57.33;23.83;;;;;;;0.45;100.00;101094.22;5077473;28;20443;-60
2023/03/03 04:07:25;;;;;;;50.20;20.77;;;;;;;0.46;100.00;101095.06;5092897;28;20480;-61
2023/03/03 04:09:53;;;;;;;49.77;23.10;;;;;;;0.50;100.00;101096.66;5083788;28;20493;-61
2023/03/03 04:12:20;;;;;;;52.63;20.00;;;;;;;0.50;100.00;101094.03;5092524;28;20448;-60
2023/03/03 04:14:47;;;;;;;52.67;20.90;;;;;;;0.58;100.00;101094.63;5096313;28;20470;-62
2023/03/03 04:17:16;;;;;;;57.77;20.90;;;;;;;0.37;100.00;101077.84;5090117;28;20451;-62
2023/03/03 04:19:43;;;;;;;56.97;23.20;;;;;;;0.45;100.00;101088.06;5083703;28;20462;-61
2023/03/03 04:22:09;;;;;;;61.53;23.00;;;;;;;0.42;100.00;101082.91;5077298;28;20517;-61
2023/03/03 04:24:36;;;;;;;70.37;24.10;;;;;;;0.52;100.00;101087.81;5083672;28;20469;-61
2023/03/03 04:27:04;;;;;;;62.53;24.70;;;;;;;0.39;100.00;101077.78;5089497;28;20492;-62
2023/03/03 04:29:30;;;;;;;49.23;20.97;;;;;;;0.60;100.00;101077.00;5092515;28;20450;-61
2023/03/03 04:31:57;;;;;;;56.80;23.17;;;;;;;0.41;100.00;101075.94;5083876;28;20427;-62
2023/03/03 04:34:24;;;;;;;53.47;22.90;;;;;;;0.46;100.00;101074.88;5065105;28;20475;-61
2023/03/03 04:36:50;;;;;;;64.27;21.97;;;;;;;0.52;100.00;101076.41;5070914;28;20442;-62
2023/03/03 04:39:17;;;;;;;59.23;22.10;;;;;;;0.45;100.00;101073.16;5082610;28;20470;-61
2023/03/03 04:41:44;;;;;;;59.80;22.70;;;;;;;0.63;100.00;101079.50;5074702;28;20535;-61
2023/03/03 04:44:12;;;;;;;65.43;24.63;;;;;;;0.62;100.00;101080.41;5093781;28;20458;-61
2023/03/03 04:46:38;;;;;;;54.47;22.83;;;;;;;0.56;100.00;101091.19;5103736;28;20426;-61
2023/03/03 04:49:07;;;;;;;59.60;23.50;;;;;;;0.48;100.00;101086.19;5103798;28;20490;-62
2023/03/03 04:51:34;;;;;;;51.50;21.77;;;;;;;0.49;100.00;101082.66;5097590;28;21003;-61
2023/03/03 04:54:00;;;;;;;58.17;23.80;;;;;;;0.58;100.00;101077.97;5116747;28;20524;-61
2023/03/03 04:56:27;;;;;;;63.50;22.93;;;;;;;0.61;100.00;101089.25;5123242;28;20501;-61
2023/03/03 04:58:54;;;;;;;55.83;22.20;;;;;;;0.51;100.00;101093.97;5113956;28;20454;-61
2023/03/03 05:01:22;;;;;;;54.17;21.50;;;;;;;0.70;100.00;101094.16;5099280;28;20446;-60
2023/03/03 05:03:49;;;;;;;70.83;24.10;;;;;;;0.62;100.00;101104.09;5097956;28;20443;-61
2023/03/03 05:06:17;;;;;;;60.97;22.87;;;;;;;0.74;100.00;101110.69;5102400;28;20500;-62
2023/03/03 05:08:44;;;;;;;59.00;23.23;;;;;;;1.08;100.00;101107.66;5101866;28;20462;-61
2023/03/03 05:11:10;;;;;;;69.07;23.50;;;;;;;1.18;100.00;101110.81;5102336;28;20478;-61
2023/03/03 05:13:37;;;;;;;57.40;22.97;;;;;;;1.48;100.00;101119.28;5100100;28;20824;-62
2023/03/03 05:16:05;;;;;;;68.40;26.97;;;;;;;0.59;100.00;101117.38;5101728;28;20454;-62
2023/03/03 05:18:33;;;;;;;74.53;26.43;;;;;;;0.90;100.00;101114.50;5111462;28;20788;-61
2023/03/03 05:20:59;;;;;;;66.43;27.33;;;;;;;0.85;100.00;101116.44;5122052;28;20452;-61
2023/03/03 05:23:26;;;;;;;73.50;23.43;;;;;;;0.86;100.00;101114.66;5104419;28;20473;-62
2023/03/03 05:25:53;;;;;;;67.67;25.03;;;;;;;0.82;100.00;101126.22;5098241;28;20518;-61
2023/03/03 05:28:19;;;;;;;53.60;21.50;;;;;;;0.85;100.00;101120.81;5097778;28;20795;-61
2023/03/03 05:30:46;;;;;;;60.50;23.50;;;;;;;0.80;100.00;101117.50;5097166;28;20454;-62
2023/03/03 05:33:14;;;;;;;60.20;24.33;;;;;;;0.89;100.00;101119.81;5112143;28;20477;-62
2023/03/03 05:35:42;;;;;;;66.50;22.80;;;;;;;0.59;100.00;101120.03;5098025;28;20488;-63
2023/03/03 05:38:09;;;;;;;68.70;23.80;;;;;;;0.61;100.00;101126.09;5103618;28;20968;-61
2023/03/03 05:40:35;;;;;;;58.00;21.97;;;;;;;1.07;100.00;101121.72;5102846;28;20549;-60
2023/03/03 05:43:02;;;;;;;61.23;21.87;;;;;;;1.02;100.00;101112.28;5100825;28;20512;-61
2023/03/03 05:45:29;;;;;;;63.57;25.37;;;;;;;0.55;100.00;101118.41;5100593;28;20453;-61
2023/03/03 05:47:55;;;;;;;59.70;21.90;;;;;;;0.98;100.00;101113.34;5100330;28;20455;-61
2023/03/03 05:50:23;;;;;;;74.60;23.77;;;;;;;0.53;100.00;101117.59;5098574;28;20457;-61
2023/03/03 05:52:51;;;;;;;67.30;23.20;;;;;;;0.54;100.00;101116.69;5100935;28;20560;-61
2023/03/03 05:55:18;;;;;;;69.93;25.90;;;;;;;0.81;100.00;101116.59;5099833;28;21210;-61
2023/03/03 05:57:45;;;;;;;70.63;22.73;;;;;;;0.70;100.00;101117.84;5106149;28;20446;-61
2023/03/03 06:00:13;;;;;;;58.07;22.83;;;;;;;0.69;100.00;101116.13;5099321;28;20485;-62
2023/03/03 06:02:40;;;;;;;59.33;22.57;;;;;;;0.63;100.00;101115.50;5099524;28;21033;-63
2023/03/03 06:05:08;;;;;;;72.83;25.20;;;;;;;0.48;100.00;101116.91;5084393;28;20440;-64
2023/03/03 06:07:34;;;;;;;67.67;24.63;;;;;;;0.34;100.00;101118.25;5095826;28;20463;-64
2023/03/03 06:10:03;;;;;;;77.43;24.30;;;;;;;0.42;100.00;101122.38;5099910;28;20452;-64
2023/03/03 06:12:30;;;;;;;80.67;24.83;;;;;;;0.19;100.00;101113.50;5100345;28;21554;-63
2023/03/03 06:14:56;;;;;;;65.17;23.27;;;;;;;-0.14;100.00;101113.78;5097680;28;20562;-65
2023/03/03 06:17:23;;;;;;;78.63;24.47;;;;;;;0.00;100.00;101118.56;5099651;28;20965;-65
2023/03/03 06:19:50;;;;;;;67.00;23.17;;;;;;;0.12;100.00;101122.53;5097266;28;20826;-65
2023/03/03 06:22:16;;;;;;;82.63;25.03;;;;;;;-0.05;100.00;101123.13;5098290;28;20529;-65
2023/03/03 06:24:43;;;;;;;65.87;24.00;;;;;;;0.08;100.00;101126.19;5099574;28;20449;-64
2023/03/03 06:27:12;;;;;;;79.53;26.20;;;;;;;-0.08;100.00;101131.94;5079373;28;20435;-64
2023/03/03 06:29:39;;;;;;;83.63;26.13;;;;;;;-0.21;100.00;101126.25;5093001;28;20452;-64
2023/03/03 06:32:06;;;;;;;77.30;24.90;;;;;;;-0.18;100.00;101129.69;5101946;28;20581;-64
2023/03/03 06:34:32;;;;;;;76.47;25.07;;;;;;;-0.15;100.00;101127.81;5120362;28;20517;-64
2023/03/03 06:36:59;;;;;;;74.33;22.60;;;;;;;0.05;100.00;101136.78;5108807;28;20928;-64
2023/03/03 06:39:26;;;;;;;72.33;25.47;;;;;;;-0.25;100.00;101142.16;5099444;28;20849;-64
2023/03/03 06:41:52;;;;;;;76.40;24.60;;;;;;;-0.24;100.00;101151.78;5121284;28;21049;-65
2023/03/03 06:44:20;;;;;;;76.27;24.20;;;;;;;-0.08;100.00;101147.72;5107451;28;20533;-64
2023/03/03 06:46:47;;;;;;;71.97;22.30;;;;;;;-0.15;100.00;101148.84;5099883;28;20751;-64
2023/03/03 06:49:14;;;;;;;81.07;24.90;;;;;;;-0.04;100.00;101145.84;5100587;28;20475;-64
2023/03/03 06:51:42;;;;;;;90.73;26.60;;;;;;;-0.01;100.00;101157.13;5108090;28;20928;-64
2023/03/03 06:54:11;;;;;;;86.00;24.63;;;;;;;-0.07;100.00;101165.22;5117506;28;20484;-64
2023/03/03 06:56:38;;;;;;;76.80;26.23;;;;;;;-0.03;100.00;101165.97;5099081;28;20452;-64
2023/03/03 06:59:11;;;;;;;75.73;23.40;;;;;;;0.31;100.00;101167.47;5112739;28;20488;-64
2023/03/03 07:01:40;;;;;;;94.90;25.57;;;;;;;0.44;100.00;101167.91;5110192;28;20792;-64
2023/03/03 07:04:14;;;;;;;84.47;26.73;;;;;;;0.39;100.00;101165.44;5099502;28;20470;-64
2023/03/03 07:06:40;;;;;;;94.37;27.37;;;;;;;0.45;100.00;101165.25;5080230;28;20455;-64
2023/03/03 07:09:13;;;;;;;89.03;28.00;;;;;;;0.23;100.00;101178.25;5095446;28;20455;-64
2023/03/03 07:11:40;;;;;;;87.07;27.90;;;;;;;0.29;100.00;101179.81;5105632;28;21090;-64
2023/03/03 07:14:14;;;;;;;89.67;25.10;;;;;;;0.30;100.00;101179.75;5100108;28;20526;-64
2023/03/03 07:16:42;;;;;;;91.33;25.10;;;;;;;0.13;100.00;101190.84;5117287;28;20477;-64
2023/03/03 07:19:17;;;;;;;88.07;28.13;;;;;;;-0.01;100.00;101193.06;5111553;28;20729;-64
2023/03/03 07:21:43;;;;;;;88.43;25.10;;;;;;;0.23;100.00;101199.31;5099897;28;20938;-64
2023/03/03 07:24:21;;;;;;;87.87;27.93;;;;;;;0.01;100.00;101199.13;5116703;28;20446;-64
2023/03/03 07:26:48;;;;;;;86.27;26.37;;;;;;;0.30;100.00;101195.53;5106552;28;20444;-64
2023/03/03 07:29:22;;;;;;;101.07;32.77;;;;;;;0.22;100.00;101207.22;5102330;28;20445;-64
2023/03/03 07:31:50;;;;;;;82.43;25.70;;;;;;;0.08;100.00;101205.91;5119591;28;20460;-64
2023/03/03 07:34:21;;;;;;;93.33;27.37;;;;;;;0.33;100.00;101205.97;5108187;28;20490;-64
2023/03/03 07:36:49;;;;;;;84.93;28.73;;;;;;;0.09;100.00;101207.63;5102830;28;20444;-63
2023/03/03 07:39:31;;;;;;;95.13;29.40;;;;;;;0.18;100.00;101207.34;5118881;28;20519;-63
2023/03/03 07:42:03;;;;;;;101.63;30.40;;;;;;;0.28;100.00;101218.41;5101515;28;20486;-63
2023/03/03 07:44:33;;;;;;;91.70;30.17;;;;;;;0.04;100.00;101211.34;5111069;28;20443;-63
2023/03/03 07:47:15;;;;;;;101.33;29.70;;;;;;;0.23;100.00;101211.59;5116812;28;20450;-64
2023/03/03 07:49:42;;;;;;;80.87;26.70;;;;;;;0.36;100.00;101212.88;5099550;28;20521;-64
2023/03/03 07:52:21;;;;;;;77.53;28.60;;;;;;;0.39;100.00;101225.94;5113934;28;20474;-63
2023/03/03 07:54:48;;;;;;;86.53;26.83;;;;;;;0.81;100.00;101222.72;5109543;28;20514;-63
2023/03/03 07:57:21;;;;;;;94.93;29.87;;;;;;;0.51;100.00;101219.41;5100609;28;20897;-64
2023/03/03 07:59:49;;;;;;;88.77;27.17;;;;;;;0.44;100.00;101218.75;5118687;28;20451;-63
2023/03/03 08:02:47;;;;;;;84.13;27.40;;;;;;;0.46;100.00;101219.56;5100081;28;20638;-64
2023/03/03 08:05:32;;;;;;;79.83;27.57;;;;;;;0.52;100.00;101222.00;5102727;28;20448;-64
2023/03/03 08:08:14;;;;;;;85.40;28.50;;;;;;;0.80;100.00;101218.41;5114862;28;20448;-63
2023/03/03 08:10:44;;;;;;;94.10;29.20;;;;;;;0.71;100.00;101227.47;5117470;28;20446;-63
2023/03/03 08:13:17;;;;;;;86.43;29.30;;;;;;;0.82;100.00;101231.50;5102691;28;21002;-63
2023/03/03 08:15:45;;;;;;;87.03;28.20;;;;;;;1.08;100.00;101220.03;5121652;28;20472;-63
2023/03/03 08:18:19;;;;;;;71.30;25.53;;;;;;;0.96;100.00;101228.41;5114998;28;20476;-63
2023/03/03 08:20:48;;;;;;;75.13;25.20;;;;;;;1.01;100.00;101229.94;5104415;28;20990;-63
2023/03/03 08:23:16;;;;;;;77.47;25.50;;;;;;;0.77;100.00;101234.28;5121520;28;20543;-63
2023/03/03 08:25:43;;;;;;;68.53;24.33;;;;;;;0.72;100.00;101225.69;5109329;28;20452;-63
2023/03/03 08:28:11;;;;;;;70.80;24.17;;;;;;;0.74;100.00;101229.97;5103368;28;20461;-63
2023/03/03 08:30:38;;;;;;;77.90;24.57;;;;;;;0.90;100.00;101232.09;5121211;28;20444;-63
2023/03/03 08:33:05;;;;;;;57.90;20.53;;;;;;;1.28;100.00;101227.19;5113401;28;20446;-63
2023/03/03 08:35:33;;;;;;;67.70;21.70;;;;;;;1.79;100.00;101227.88;5102165;28;20513;-64
2023/03/03 08:38:00;;;;;;;63.53;24.03;;;;;;;1.69;100.00;101228.25;5121757;28;20476;-64
2023/03/03 08:40:26;;;;;;;58.27;20.20;;;;;;;1.69;100.00;101224.78;5099880;28;20511;-63
2023/03/03 08:42:54;;;;;;;54.30;22.90;;;;;;;1.52;100.00;101230.69;5069918;28;20447;-63
2023/03/03 08:45:21;;;;;;;57.13;22.60;;;;;;;1.22;100.00;101235.34;5101651;28;20885;-64
2023/03/03 08:47:47;;;;;;;56.57;21.70;;;;;;;1.07;100.00;101228.84;5086102;28;20439;-63
2023/03/03 08:50:14;;;;;;;60.33;21.47;;;;;;;0.96;100.00;101231.03;5087957;28;20452;-63
2023/03/03 08:52:42;;;;;;;49.43;19.37;;;;;;;1.33;100.00;101230.53;5101355;28;20492;-63
2023/03/03 08:55:10;;;;;;;57.53;21.40;;;;;;;1.57;100.00;101231.38;5102994;28;20500;-63
2023/03/03 08:57:37;;;;;;;71.20;24.77;;;;;;;0.94;100.00;101229.28;5093870;28;20451;-63
2023/03/03 09:00:05;;;;;;;64.63;21.93;;;;;;;0.82;100.00;101234.16;5080658;28;20453;-63
2023/03/03 09:02:32;;;;;;;51.07;20.13;;;;;;;0.90;100.00;101229.44;5099742;28;20515;-63
2023/03/03 09:04:59;;;;;;;50.77;20.67;;;;;;;1.23;100.00;101231.78;5094174;28;20486;-63
2023/03/03 09:07:25;;;;;;;60.83;22.27;;;;;;;1.03;100.00;101233.38;5081457;28;20509;-63
2023/03/03 09:09:53;;;;;;;53.23;20.07;;;;;;;1.43;100.00;101231.91;5099572;28;20461;-63
2023/03/03 09:12:29;;;;;;;54.67;22.67;;;;;;;1.07;100.00;101240.22;5092647;28;20488;-62
2023/03/03 09:14:58;;;;;;;53.83;22.03;;;;;;;1.09;100.00;101242.81;5083694;28;20529;-63
2023/03/03 09:17:26;;;;;;;52.60;21.90;;;;;;;0.98;100.00;101235.31;5102051;28;20927;-63
2023/03/03 09:19:56;;;;;;;58.23;20.90;;;;;;;1.21;100.00;101238.88;5089900;28;20489;-63
2023/03/03 09:22:24;;;;;;;61.23;21.17;;;;;;;1.00;100.00;101244.00;5082947;28;20524;-63
2023/03/03 09:24:56;;;;;;;56.90;19.70;;;;;;;1.19;100.00;101244.19;5102139;28;20427;-63
2023/03/03 09:27:28;;;;;;;60.83;21.33;;;;;;;1.49;100.00;101246.59;5100273;28;20450;-63
2023/03/03 09:29:55;;;;;;;58.17;20.93;;;;;;;2.41;100.00;101250.03;5092501;28;20566;-63
2023/03/03 09:32:30;;;;;;;50.83;21.40;;;;;;;2.75;100.00;101248.63;5081687;28;20434;-63
2023/03/03 09:34:58;;;;;;;48.57;18.53;;;;;;;2.74;100.00;101244.25;5061394;28;20491;-63
2023/03/03 09:37:27;;;;;;;53.07;21.37;;;;;;;3.36;100.00;101253.81;5083752;28;20447;-62
2023/03/03 09:39:57;;;;;;;46.20;17.23;;;;;;;2.58;100.00;101244.88;5101342;28;20900;-63
2023/03/03 09:42:50;;;;;;;47.50;17.27;;;;;;;2.72;100.00;101246.94;5077497;28;20531;-63
2023/03/03 09:45:40;;;;;;;40.20;17.53;;;;;;;2.58;100.00;101244.03;5113447;28;20473;-63
2023/03/03 09:48:32;;;;;;;48.00;19.97;;;;;;;2.00;100.00;101258.69;5121565;28;20446;-63
2023/03/03 09:51:24;;;;;;;53.87;20.33;;;;;;;2.67;100.00;101253.34;5119172;28;20482;-63
2023/03/03 09:54:03;;;;;;;52.40;20.00;;;;;;;3.14;100.00;101255.72;5084513;28;20491;-63
2023/03/03 09:56:33;;;;;;;48.87;20.23;;;;;;;2.93;100.00;101258.38;5117934;28;21010;-62
2023/03/03 09:59:15;;;;;;;53.47;19.60;;;;;;;2.61;100.00;101252.69;5111212;28;20972;-62
2023/03/03 10:01:50;;;;;;;47.83;20.90;;;;;;;2.83;100.00;101260.56;5100973;28;20452;-63
2023/03/03 10:04:42;;;;;;;39.30;18.43;;;;;;;3.31;100.00;101263.72;5081056;28;20448;-63
2023/03/03 10:07:20;;;;;;;44.23;19.83;;;;;;;3.08;100.00;101262.13;5108908;28;20486;-63
2023/03/03 10:09:59;;;;;;;42.47;19.80;;;;;;;2.97;100.00;101269.69;5109044;28;20471;-64
2023/03/03 10:12:28;;;;;;;52.40;20.70;;;;;;;2.96;100.00;101268.81;5104478;28;20458;-63
2023/03/03 10:15:16;;;;;;;49.10;22.47;;;;;;;2.02;100.00;101267.41;5121206;28;20823;-63
2023/03/03 10:17:49;;;;;;;52.60;21.47;;;;;;;2.31;100.00;101275.94;5104142;28;20519;-62
2023/03/03 10:20:35;;;;;;;48.30;20.20;;;;;;;2.47;100.00;101276.16;5107122;28;20442;-63
2023/03/03 10:23:07;;;;;;;56.77;22.13;;;;;;;3.38;100.00;101273.09;5116512;28;20482;-63
2023/03/03 10:25:44;;;;;;;49.53;21.40;;;;;;;3.93;100.00;101277.63;5100868;28;20458;-63
2023/03/03 10:28:32;;;;;;;49.73;21.33;;;;;;;3.30;100.00;101274.38;5119638;28;20481;-63
2023/03/03 10:31:06;;;;;;;53.10;20.87;;;;;;;2.56;100.00;101274.94;5110016;28;20584;-63
2023/03/03 10:33:39;;;;;;;53.57;22.03;;;;;;;2.97;100.00;101278.44;5103201;28;20449;-63
2023/03/03 10:36:29;;;;;;;48.80;23.50;;;;;;;3.06;100.00;101269.28;5120590;28;20550;-63
2023/03/03 10:39:03;;;;;;;50.83;20.57;;;;;;;3.22;100.00;101276.53;5079823;28;20483;-63
2023/03/03 10:41:40;;;;;;;47.60;20.40;;;;;;;3.49;100.00;101272.63;5109187;28;20491;-63
2023/03/03 10:44:18;;;;;;;45.53;20.97;;;;;;;3.93;100.00;101280.28;5112374;28;20449;-63
2023/03/03 10:46:57;;;;;;;47.90;19.20;;;;;;;4.22;100.00;101275.41;5100815;28;20464;-64
2023/03/03 10:49:49;;;;;;;47.60;20.73;;;;;;;4.48;100.00;101268.81;5119610;28;20478;-64
2023/03/03 10:52:32;;;;;;;53.10;21.03;;;;;;;4.81;100.00;101276.00;5109772;28;20593;-64
2023/03/03 10:55:25;;;;;;;47.63;20.27;;;;;;;4.75;100.00;101265.69;5100413;28;20500;-63
2023/03/03 10:58:00;;;;;;;47.27;20.90;;;;;;;4.92;100.00;101272.78;5079889;28;21063;-63
2023/03/03 11:00:32;;;;;;;45.10;20.37;;;;;;;3.81;100.00;101275.56;5110818;28;20450;-63
2023/03/03 11:03:23;;;;;;;48.63;20.60;;;;;;;3.99;100.00;101275.63;5092158;28;20443;-63
2023/03/03 11:05:52;;;;;;;41.60;20.60;;;;;;;4.78;100.00;101277.94;5119425;28;20483;-63
2023/03/03 11:08:22;;;;;;;50.10;21.27;;;;;;;5.21;100.00;101270.44;5079931;28;20449;-64
2023/03/03 11:10:54;;;;;;;43.87;18.67;;;;;;;5.16;100.00;101267.16;5097680;28;20459;-63
2023/03/03 11:13:26;;;;;;;46.97;19.37;;;;;;;5.58;100.00;101260.50;5120029;28;20881;-63
2023/03/03 11:16:09;;;;;;;46.27;19.57;;;;;;;5.36;100.00;101264.28;5101812;28;20548;-63
2023/03/03 11:18:49;;;;;;;41.10;21.23;;;;;;;4.65;100.00;101253.84;5108065;28;20441;-63
2023/03/03 11:21:19;;;;;;;44.53;20.60;;;;;;;4.23;100.00;101263.00;5120101;28;20781;-63